Rosa Maersk — OVST2 — position and weather

sailwx.info

Track history (hours):
 
Tides and Currents Weather Stations Pressure Air Temp Water Temp Dewpoint Dewpoint Depression Visibility Wind Speed Wind Dir Waves Ship Positions

Rosa Maersk

Last reported at 2016-Aug-17 13:25 UTC. Time now 2016-Aug-29 08:59 UTC.
Position N 27°42' W 015°12'.
Warning: this ship's position is 11 days out of date.

Length 172 m; draft 9.2 m.

Type: Ship. MMSI: 220288000.

Date/timePositionNaut miles runAvg speedWind from/ knotsBaromVisibWave heightAir tempDewpointWater temp
2016-Aug-17 13:25N 27°42' W 015°12'1012.2
2016-Aug-17 12:33N 27°51' W 015°07'1212.2
2016-Aug-17 11:33N 28°03' W 015°02'1212.2
2016-Aug-17 10:33N 28°14' W 014°57'1313.2
2016-Aug-17 09:33N 28°27' W 014°53'1413.6
2016-Aug-17 08:33N 28°40' W 014°49'1311.9
2016-Aug-17 07:28N 28°52' W 014°46'1112.0
2016-Aug-17 06:32N 29°03' W 014°43'1212.1
2016-Aug-17 05:33N 29°15' W 014°40'1212.1
2016-Aug-17 04:33N 29°27' W 014°37'1312.0
2016-Aug-17 03:29N 29°39' W 014°33'2512.3
2016-Aug-17 01:25N 30°04' W 014°27'44212.3
2016-Aug-15 13:31N 37°14' W 012°25'1212.4
2016-Aug-15 12:33N 37°26' W 012°22'12412.2
2016-Aug-15 02:25N 39°26' W 011°46'45212.1
2016-Aug-13 13:10N 46°28' W 008°03'6812.1
2016-Aug-13 07:33N 47°26' W 007°10'9112.5
2016-Aug-13 00:12N 48°43' W 005°58'1111.8
2016-Aug-12 23:16N 48°53' W 005°49'811.3
2016-Aug-12 22:33N 48°57' W 005°39'1211.6
2016-Aug-12 21:33N 49°03' W 005°24'2712.2
2016-Aug-12 19:21N 49°17' W 004°49'1012.2
2016-Aug-12 18:32N 49°22' W 004°35'3712.2
2016-Aug-12 15:32N 49°41' W 003°47'1111.3
2016-Aug-12 14:33N 49°47' W 003°33'1110.9
2016-Aug-12 13:33N 49°52' W 003°18'1110.8
2016-Aug-12 12:33N 49°57' W 003°03'1111.0
2016-Aug-12 11:33N 49°60' W 002°47'1111.6
2016-Aug-12 10:33N 50°03' W 002°29'1212.4
2016-Aug-12 09:33N 50°06' W 002°11'1313.2
2016-Aug-12 08:32N 50°10' W 001°51'1313.1
2016-Aug-12 07:33N 50°14' W 001°31'2512.7
2016-Aug-12 05:33N 50°20' W 000°53'2211.1
2016-Aug-12 03:33N 50°26' W 000°19'1110.6
2016-Aug-12 02:33N 50°29' W 000°03'1010.4
2016-Aug-12 01:33N 50°32' E 000°12'4611.5
2016-Aug-11 21:32N 50°54' E 001°16'1111.2
2016-Aug-11 20:33N 51°02' E 001°28'1010.1
2016-Aug-11 19:33N 51°09' E 001°40'10 9.6
2016-Aug-11 18:33N 51°17' E 001°49'1010.3
2016-Aug-11 17:33N 51°27' E 001°55'1111.1
2016-Aug-11 16:33N 51°35' E 002°07'486 9.5
2016-Aug-09 13:29N 57°54' E 010°53'6 6.2
2016-Aug-09 12:33N 57°50' E 011°01'8 8.2
2016-Aug-09 11:33N 57°44' E 011°12'9 9.1
2016-Aug-09 10:33N 57°38' E 011°24'8 8.1
2016-Aug-09 09:33N 57°36' E 011°39'8 8.3
2016-Aug-09 08:33N 57°41' E 011°50'1 1.3
2016-Aug-09 07:33N 57°41' E 011°53'0 0.0
2016-Aug-09 04:33N 57°41' E 011°53'0 0.0
2016-Aug-09 03:33N 57°41' E 011°53'0 0.0
2016-Aug-09 02:33N 57°41' E 011°53'0 0.0
2016-Aug-09 01:33N 57°41' E 011°53'0 0.0
2016-Aug-09 00:33N 57°41' E 011°53'0 0.0
2016-Aug-08 23:33N 57°41' E 011°53'0 0.0
2016-Aug-08 22:33N 57°41' E 011°53'0 0.0
2016-Aug-08 21:33N 57°41' E 011°53'0 0.0
2016-Aug-08 20:33N 57°41' E 011°53'0 0.0
2016-Aug-08 19:33N 57°41' E 011°53'0 0.0
2016-Aug-08 18:33N 57°41' E 011°53'0 0.0
2016-Aug-08 17:33N 57°41' E 011°53'0 0.0
2016-Aug-08 16:33N 57°41' E 011°53'0 0.0
2016-Aug-08 15:33N 57°41' E 011°53'0 0.0
2016-Aug-08 14:33N 57°41' E 011°53'0 0.0
2016-Aug-08 13:33N 57°41' E 011°53'0 0.0
2016-Aug-08 12:33N 57°41' E 011°53'0 0.0
2016-Aug-08 11:33N 57°41' E 011°53'0 0.0
2016-Aug-08 10:33N 57°41' E 011°53'0 0.0
2016-Aug-08 09:33N 57°41' E 011°53'0 0.0
2016-Aug-08 08:33N 57°41' E 011°53'0 0.0
2016-Aug-08 07:33N 57°41' E 011°53'0 0.0
2016-Aug-08 06:33N 57°41' E 011°53'0 0.0
2016-Aug-08 05:33N 57°41' E 011°53'0 0.0
2016-Aug-08 04:33N 57°41' E 011°53'0 0.0
2016-Aug-08 03:33N 57°41' E 011°53'0 0.0
2016-Aug-08 02:33N 57°41' E 011°53'0 0.0
2016-Aug-08 01:33N 57°41' E 011°53'0 0.0
2016-Aug-08 00:32N 57°41' E 011°53'0 0.0
2016-Aug-07 23:32N 57°41' E 011°53'0 0.0
2016-Aug-07 22:32N 57°41' E 011°53'0 0.0
2016-Aug-07 21:32N 57°41' E 011°53'0 0.0
2016-Aug-07 20:32N 57°41' E 011°53'0 0.0
2016-Aug-07 19:32N 57°41' E 011°53'0 0.0
2016-Aug-07 18:32N 57°41' E 011°53'0 0.0
2016-Aug-07 17:32N 57°41' E 011°53'0 0.0
2016-Aug-07 16:32N 57°41' E 011°53'0 0.0
2016-Aug-07 15:32N 57°41' E 011°53'0 0.0
2016-Aug-07 14:32N 57°41' E 011°53'0 0.0
2016-Aug-07 13:32N 57°41' E 011°53'  
Track history (hours):
 
Tides and Currents Weather Stations Pressure Air Temp Water Temp Dewpoint Dewpoint Depression Visibility Wind Speed Wind Dir Waves Ship Positions

Rosa Maersk

Last reported at 2016-Aug-17 13:25 UTC. Time now 2016-Aug-29 08:59 UTC.
Position N 27°42' W 015°12'.
Warning: this ship's position is 11 days out of date.

Length 172 m; draft 9.2 m.

Type: Ship. MMSI: 220288000.

Date/timePositionNaut miles runAvg speedWind from/ knotsBaromVisibWave heightAir tempDewpointWater temp
2016-Aug-17 13:25N 27°42' W 015°12'1012.2
2016-Aug-17 12:33N 27°51' W 015°07'1212.2
2016-Aug-17 11:33N 28°03' W 015°02'1212.2
2016-Aug-17 10:33N 28°14' W 014°57'1313.2
2016-Aug-17 09:33N 28°27' W 014°53'1413.6
2016-Aug-17 08:33N 28°40' W 014°49'1311.9
2016-Aug-17 07:28N 28°52' W 014°46'1112.0
2016-Aug-17 06:32N 29°03' W 014°43'1212.1
2016-Aug-17 05:33N 29°15' W 014°40'1212.1
2016-Aug-17 04:33N 29°27' W 014°37'1312.0
2016-Aug-17 03:29N 29°39' W 014°33'2512.3
2016-Aug-17 01:25N 30°04' W 014°27'44212.3
2016-Aug-15 13:31N 37°14' W 012°25'1212.4
2016-Aug-15 12:33N 37°26' W 012°22'12412.2
2016-Aug-15 02:25N 39°26' W 011°46'45212.1
2016-Aug-13 13:10N 46°28' W 008°03'6812.1
2016-Aug-13 07:33N 47°26' W 007°10'9112.5
2016-Aug-13 00:12N 48°43' W 005°58'1111.8
2016-Aug-12 23:16N 48°53' W 005°49'811.3
2016-Aug-12 22:33N 48°57' W 005°39'1211.6
2016-Aug-12 21:33N 49°03' W 005°24'2712.2
2016-Aug-12 19:21N 49°17' W 004°49'1012.2
2016-Aug-12 18:32N 49°22' W 004°35'3712.2
2016-Aug-12 15:32N 49°41' W 003°47'1111.3
2016-Aug-12 14:33N 49°47' W 003°33'1110.9
2016-Aug-12 13:33N 49°52' W 003°18'1110.8
2016-Aug-12 12:33N 49°57' W 003°03'1111.0
2016-Aug-12 11:33N 49°60' W 002°47'1111.6
2016-Aug-12 10:33N 50°03' W 002°29'1212.4
2016-Aug-12 09:33N 50°06' W 002°11'1313.2
2016-Aug-12 08:32N 50°10' W 001°51'1313.1
2016-Aug-12 07:33N 50°14' W 001°31'2512.7
2016-Aug-12 05:33N 50°20' W 000°53'2211.1
2016-Aug-12 03:33N 50°26' W 000°19'1110.6
2016-Aug-12 02:33N 50°29' W 000°03'1010.4
2016-Aug-12 01:33N 50°32' E 000°12'4611.5
2016-Aug-11 21:32N 50°54' E 001°16'1111.2
2016-Aug-11 20:33N 51°02' E 001°28'1010.1
2016-Aug-11 19:33N 51°09' E 001°40'10 9.6
2016-Aug-11 18:33N 51°17' E 001°49'1010.3
2016-Aug-11 17:33N 51°27' E 001°55'1111.1
2016-Aug-11 16:33N 51°35' E 002°07'486 9.5
2016-Aug-09 13:29N 57°54' E 010°53'6 6.2
2016-Aug-09 12:33N 57°50' E 011°01'8 8.2
2016-Aug-09 11:33N 57°44' E 011°12'9 9.1
2016-Aug-09 10:33N 57°38' E 011°24'8 8.1
2016-Aug-09 09:33N 57°36' E 011°39'8 8.3
2016-Aug-09 08:33N 57°41' E 011°50'1 1.3
2016-Aug-09 07:33N 57°41' E 011°53'0 0.0
2016-Aug-09 04:33N 57°41' E 011°53'0 0.0
2016-Aug-09 03:33N 57°41' E 011°53'0 0.0
2016-Aug-09 02:33N 57°41' E 011°53'0 0.0
2016-Aug-09 01:33N 57°41' E 011°53'0 0.0
2016-Aug-09 00:33N 57°41' E 011°53'0 0.0
2016-Aug-08 23:33N 57°41' E 011°53'0 0.0
2016-Aug-08 22:33N 57°41' E 011°53'0 0.0
2016-Aug-08 21:33N 57°41' E 011°53'0 0.0
2016-Aug-08 20:33N 57°41' E 011°53'0 0.0
2016-Aug-08 19:33N 57°41' E 011°53'0 0.0
2016-Aug-08 18:33N 57°41' E 011°53'0 0.0
2016-Aug-08 17:33N 57°41' E 011°53'0 0.0
2016-Aug-08 16:33N 57°41' E 011°53'0 0.0
2016-Aug-08 15:33N 57°41' E 011°53'0 0.0
2016-Aug-08 14:33N 57°41' E 011°53'0 0.0
2016-Aug-08 13:33N 57°41' E 011°53'0 0.0
2016-Aug-08 12:33N 57°41' E 011°53'0 0.0
2016-Aug-08 11:33N 57°41' E 011°53'0 0.0
2016-Aug-08 10:33N 57°41' E 011°53'0 0.0
2016-Aug-08 09:33N 57°41' E 011°53'0 0.0
2016-Aug-08 08:33N 57°41' E 011°53'0 0.0
2016-Aug-08 07:33N 57°41' E 011°53'0 0.0
2016-Aug-08 06:33N 57°41' E 011°53'0 0.0
2016-Aug-08 05:33N 57°41' E 011°53'0 0.0
2016-Aug-08 04:33N 57°41' E 011°53'0 0.0
2016-Aug-08 03:33N 57°41' E 011°53'0 0.0
2016-Aug-08 02:33N 57°41' E 011°53'0 0.0
2016-Aug-08 01:33N 57°41' E 011°53'0 0.0
2016-Aug-08 00:32N 57°41' E 011°53'0 0.0
2016-Aug-07 23:32N 57°41' E 011°53'0 0.0
2016-Aug-07 22:32N 57°41' E 011°53'0 0.0
2016-Aug-07 21:32N 57°41' E 011°53'0 0.0
2016-Aug-07 20:32N 57°41' E 011°53'0 0.0
2016-Aug-07 19:32N 57°41' E 011°53'0 0.0
2016-Aug-07 18:32N 57°41' E 011°53'0 0.0
2016-Aug-07 17:32N 57°41' E 011°53'0 0.0
2016-Aug-07 16:32N 57°41' E 011°53'0 0.0
2016-Aug-07 15:32N 57°41' E 011°53'0 0.0
2016-Aug-07 14:32N 57°41' E 011°53'0 0.0
2016-Aug-07 13:32N 57°41' E 011°53'  

Dump ship's entire track history